Terminal Aerodrome Forecast
Issued by NWS

Home | Current Version | Previous Version | Text Only | Print | Product List | Glossary On
Versions: 1 2 3 4 5 6 7 8 9 10 11
698
FTPA31 PHFO 272343
TAFHJH
TAF
PHJH 272343Z 2800/2824 07011KT P6SM FEW025 BKN070
     FM280500 06006KT P6SM FEW030
     FM282000 30007KT P6SM FEW025 SCT045
      AMD NOT SKED 2804/2816=

USA.gov is the U.S. government's official web portal to all federal, state and local government web resources and services.